createdAt,value
2023-03-28T00:01:20.337Z,102733.61
2023-03-28T00:03:50.062Z,102733.70
2023-03-28T00:06:21.012Z,102738.51
2023-03-28T00:08:51.399Z,102744.92
2023-03-28T00:11:22.593Z,102741.05
2023-03-28T00:14:03.653Z,102744.45
2023-03-28T00:16:39.382Z,102740.11
2023-03-28T00:19:11.813Z,102741.06
2023-03-28T00:21:46.018Z,102747.91
2023-03-28T00:24:17.455Z,102746.55
2023-03-28T00:26:48.565Z,102747.84
2023-03-28T00:29:20.081Z,102745.75
2023-03-28T00:31:51.490Z,102747.51
2023-03-28T00:34:21.170Z,102744.41
2023-03-28T00:36:50.699Z,102749.16
2023-03-28T00:39:20.449Z,102748.36
2023-03-28T00:41:50.901Z,102743.59
2023-03-28T00:44:49.533Z,102743.57
2023-03-28T00:47:27.763Z,102743.55
2023-03-28T00:50:03.122Z,102736.33
2023-03-28T00:52:39.502Z,102732.05
2023-03-28T00:55:14.865Z,102739.88
2023-03-28T00:57:45.382Z,102733.48
2023-03-28T01:00:17.882Z,102733.46
2023-03-28T01:02:53.045Z,102736.05
2023-03-28T01:05:25.901Z,102732.59
2023-03-28T01:08:17.644Z,102731.72
2023-03-28T01:10:46.943Z,102732.16
2023-03-28T01:13:19.379Z,102734.36
2023-03-28T01:15:51.709Z,102732.23
2023-03-28T01:18:22.902Z,102726.60
2023-03-28T01:21:10.783Z,102723.62
2023-03-28T01:24:11.707Z,102725.37
2023-03-28T01:26:37.216Z,102718.52
2023-03-28T01:29:30.456Z,102715.05
2023-03-28T01:32:23.691Z,102711.22
2023-03-28T01:35:13.008Z,102714.25
2023-03-28T01:37:54.732Z,102709.07
2023-03-28T01:40:57.339Z,102708.64
2023-03-28T01:43:30.122Z,102706.54
2023-03-28T01:46:16.895Z,102710.91
2023-03-28T01:49:07.866Z,102713.12
2023-03-28T01:51:55.475Z,102716.62
2023-03-28T01:54:39.933Z,102722.25
2023-03-28T01:57:20.236Z,102723.06
2023-03-28T01:59:56.230Z,102723.03
2023-03-28T02:02:39.415Z,102721.66
2023-03-28T02:05:15.598Z,102722.41
2023-03-28T02:07:47.082Z,102720.98
2023-03-28T02:10:19.577Z,102717.42
2023-03-28T02:13:01.671Z,102721.29
2023-03-28T02:15:43.701Z,102721.19
2023-03-28T02:18:24.078Z,102720.28
2023-03-28T02:20:58.583Z,102717.27
2023-03-28T02:23:45.626Z,102715.59
2023-03-28T02:26:24.303Z,102711.36
2023-03-28T02:28:57.210Z,102712.77
2023-03-28T02:31:32.916Z,102703.36
2023-03-28T02:34:04.383Z,102709.45
2023-03-28T02:36:53.250Z,102710.82
2023-03-28T02:40:01.328Z,102703.08
2023-03-28T02:42:34.000Z,102703.55
2023-03-28T02:45:27.116Z,102701.88
2023-03-28T02:47:57.703Z,102701.83
2023-03-28T02:50:41.435Z,102698.47
2023-03-28T02:53:31.741Z,102706.27
2023-03-28T02:56:10.420Z,102704.50
2023-03-28T02:59:03.884Z,102700.23
2023-03-28T03:01:34.215Z,102692.87
2023-03-28T03:04:04.342Z,102694.13
2023-03-28T03:06:36.058Z,102691.11
2023-03-28T03:09:06.051Z,102691.17
2023-03-28T03:11:35.394Z,102688.20
2023-03-28T03:14:04.802Z,102687.83
2023-03-28T03:16:34.818Z,102686.58
2023-03-28T03:19:04.410Z,102693.92
2023-03-28T03:21:34.132Z,102693.45
2023-03-28T03:24:04.422Z,102691.73
2023-03-28T03:26:33.822Z,102689.62
2023-03-28T03:29:05.176Z,102698.71
2023-03-28T03:31:35.184Z,102694.41
2023-03-28T03:34:24.324Z,102691.38
2023-03-28T03:36:55.427Z,102697.03
2023-03-28T03:39:25.131Z,102701.33
2023-03-28T03:41:54.629Z,102695.30
2023-03-28T03:44:24.439Z,102694.48
2023-03-28T03:46:54.154Z,102694.91
2023-03-28T03:49:23.787Z,102689.75
2023-03-28T03:51:54.064Z,102682.06
2023-03-28T03:54:23.978Z,102685.03
2023-03-28T03:56:54.375Z,102686.31
2023-03-28T03:59:23.911Z,102684.14
2023-03-28T04:01:54.221Z,102682.84
2023-03-28T04:04:45.303Z,102678.60
2023-03-28T04:07:19.236Z,102679.07
2023-03-28T04:09:50.423Z,102682.06
2023-03-28T04:12:19.774Z,102677.69
2023-03-28T04:14:51.073Z,102676.46
2023-03-28T04:17:41.781Z,102679.97
2023-03-28T04:20:14.027Z,102681.75
2023-03-28T04:22:46.394Z,102680.43
2023-03-28T04:25:19.585Z,102680.41
2023-03-28T04:27:49.042Z,102681.34
2023-03-28T04:30:20.468Z,102683.95
2023-03-28T04:32:59.047Z,102675.34
2023-03-28T04:35:29.846Z,102675.79
2023-03-28T04:37:59.352Z,102672.34
2023-03-28T04:40:29.465Z,102674.92
2023-03-28T04:43:03.386Z,102675.79
2023-03-28T04:45:34.408Z,102680.53
2023-03-28T04:48:06.881Z,102676.67
2023-03-28T04:50:36.226Z,102681.83
2023-03-28T04:53:06.412Z,102677.52
2023-03-28T04:55:37.808Z,102677.58
2023-03-28T04:58:08.811Z,102682.77
2023-03-28T05:00:39.392Z,102681.94
2023-03-28T05:03:21.674Z,102678.00
2023-03-28T05:05:54.054Z,102685.33
2023-03-28T05:08:26.975Z,102684.52
2023-03-28T05:10:56.386Z,102686.61
2023-03-28T05:13:26.361Z,102685.33
2023-03-28T05:16:00.580Z,102684.41
2023-03-28T05:18:34.993Z,102684.86
2023-03-28T05:21:05.153Z,102683.16
2023-03-28T05:23:34.744Z,102683.55
2023-03-28T05:26:07.210Z,102684.42
2023-03-28T05:28:37.286Z,102689.14
2023-03-28T05:31:08.631Z,102689.08
2023-03-28T05:33:38.071Z,102693.78
2023-03-28T05:36:08.080Z,102691.58
2023-03-28T05:38:38.187Z,102685.95
2023-03-28T05:41:09.909Z,102689.38
2023-03-28T05:43:39.228Z,102688.91
2023-03-28T05:46:09.342Z,102696.25
2023-03-28T05:48:40.490Z,102696.55
2023-03-28T05:51:09.863Z,102701.22
2023-03-28T05:53:39.162Z,102696.42
2023-03-28T05:56:11.398Z,102692.33
2023-03-28T05:58:40.705Z,102699.58
2023-03-28T06:01:11.875Z,102701.14
2023-03-28T06:03:42.784Z,102688.86
2023-03-28T06:06:12.347Z,102687.23
2023-03-28T06:08:42.101Z,102688.13
2023-03-28T06:11:12.743Z,102691.52
2023-03-28T06:13:53.311Z,102702.17
2023-03-28T06:16:30.512Z,102699.95
2023-03-28T06:19:03.988Z,102702.15
2023-03-28T06:21:26.046Z,102703.72
2023-03-28T06:23:56.464Z,102705.82
2023-03-28T06:26:27.586Z,102701.59
2023-03-28T06:28:57.154Z,102702.48
2023-03-28T06:31:34.857Z,102702.81
2023-03-28T06:34:04.347Z,102700.61
2023-03-28T06:36:34.767Z,102705.55
2023-03-28T06:39:04.880Z,102706.84
2023-03-28T06:41:34.974Z,102704.41
2023-03-28T06:44:05.625Z,102712.13
2023-03-28T06:46:39.894Z,102714.86
2023-03-28T06:49:09.621Z,102710.80
2023-03-28T06:51:40.957Z,102702.95
2023-03-28T06:54:10.594Z,102709.13
2023-03-28T06:56:40.083Z,102705.86
2023-03-28T06:59:09.683Z,102713.81
2023-03-28T07:01:39.841Z,102707.91
2023-03-28T07:04:14.129Z,102712.35
2023-03-28T07:06:44.787Z,102716.28
2023-03-28T07:09:14.032Z,102714.98
2023-03-28T07:11:45.256Z,102713.20
2023-03-28T07:14:14.740Z,102708.08
2023-03-28T07:16:44.899Z,102714.41
2023-03-28T07:19:14.596Z,102708.97
2023-03-28T07:21:45.832Z,102718.39
2023-03-28T07:24:16.032Z,102706.45
2023-03-28T07:26:52.002Z,102709.55
2023-03-28T07:29:21.404Z,102704.26
2023-03-28T07:31:51.379Z,102706.08
2023-03-28T07:34:20.811Z,102707.58
2023-03-28T07:36:50.600Z,102707.56
2023-03-28T07:39:22.477Z,102704.36
2023-03-28T07:41:53.097Z,102709.83
2023-03-28T07:44:22.338Z,102714.21
2023-03-28T07:46:52.909Z,102719.38
2023-03-28T07:49:22.971Z,102710.11
2023-03-28T07:51:52.797Z,102710.31
2023-03-28T07:54:22.181Z,102709.11
2023-03-28T07:56:52.161Z,102707.33
2023-03-28T07:59:23.260Z,102702.45
2023-03-28T08:01:54.673Z,102701.05
2023-03-28T08:04:24.444Z,102709.34
2023-03-28T08:06:58.565Z,102704.94
2023-03-28T08:09:28.390Z,102707.09
2023-03-28T08:12:02.521Z,102705.34
2023-03-28T08:14:32.181Z,102705.55
2023-03-28T08:17:02.059Z,102702.91
2023-03-28T08:19:32.404Z,102702.95
2023-03-28T08:22:16.639Z,102707.33
2023-03-28T08:24:50.602Z,102703.44
2023-03-28T08:27:24.785Z,102704.05
2023-03-28T08:29:56.070Z,102698.50
2023-03-28T08:32:27.008Z,102695.55
2023-03-28T08:34:58.227Z,102694.75
2023-03-28T08:37:28.253Z,102698.31
2023-03-28T08:40:00.647Z,102696.37
2023-03-28T08:42:50.116Z,102703.22
2023-03-28T08:45:31.548Z,102701.41
2023-03-28T08:48:13.231Z,102698.56
2023-03-28T08:50:53.594Z,102694.25
2023-03-28T08:53:30.496Z,102694.75
2023-03-28T08:56:01.439Z,102704.47
2023-03-28T08:58:34.686Z,102703.97
2023-03-28T09:01:05.196Z,102707.81
2023-03-28T09:03:34.906Z,102696.91
2023-03-28T09:06:12.341Z,102693.09
2023-03-28T09:08:54.180Z,102687.40
2023-03-28T09:11:37.708Z,102687.08
2023-03-28T09:14:26.749Z,102686.22
2023-03-28T09:17:17.722Z,102686.97
2023-03-28T09:20:14.508Z,102685.72
2023-03-28T09:23:24.510Z,102688.27
2023-03-28T09:26:01.634Z,102679.33
2023-03-28T09:28:35.819Z,102677.92
2023-03-28T09:31:09.392Z,102675.62
2023-03-28T09:33:44.003Z,102674.36
2023-03-28T09:36:18.571Z,102671.14
2023-03-28T09:38:59.753Z,102669.55
2023-03-28T09:41:45.391Z,102662.44
2023-03-28T09:44:53.039Z,102668.17
2023-03-28T09:47:29.745Z,102655.15
2023-03-28T09:50:11.792Z,102646.41
2023-03-28T09:52:32.733Z,102639.47
2023-03-28T09:55:02.299Z,102630.58
2023-03-28T09:57:51.926Z,102634.38
2023-03-28T10:00:23.476Z,102625.91
2023-03-28T10:02:55.753Z,102618.33
2023-03-28T10:05:34.203Z,102618.30
2023-03-28T10:08:08.546Z,102624.27
2023-03-28T10:10:42.665Z,102622.34
2023-03-28T10:13:14.166Z,102624.44
2023-03-28T10:15:50.201Z,102614.70
2023-03-28T10:18:31.682Z,102609.19
2023-03-28T10:21:15.603Z,102614.05
2023-03-28T10:23:52.876Z,102608.58
2023-03-28T10:26:24.588Z,102607.38
2023-03-28T10:28:54.961Z,102592.67
2023-03-28T10:31:31.952Z,102600.73
2023-03-28T10:34:03.654Z,102596.33
2023-03-28T10:36:43.892Z,102593.72
2023-03-28T10:39:32.605Z,102588.28
2023-03-28T10:42:23.833Z,102587.30
2023-03-28T10:45:04.205Z,102587.13
2023-03-28T10:47:35.917Z,102577.63
2023-03-28T10:50:08.156Z,102569.88
2023-03-28T10:52:50.957Z,102563.88
2023-03-28T10:55:25.241Z,102555.23
2023-03-28T10:58:14.208Z,102550.69
2023-03-28T11:00:57.338Z,102545.94
2023-03-28T11:03:57.668Z,102548.83
2023-03-28T11:06:46.804Z,102548.47
2023-03-28T11:09:25.792Z,102546.08
2023-03-28T11:14:21.808Z,102531.81
2023-03-28T11:15:11.924Z,102530.30
2023-03-28T11:17:55.248Z,102536.22
2023-03-28T11:20:46.810Z,102526.08
2023-03-28T11:23:42.223Z,102514.13
2023-03-28T11:26:25.262Z,102515.83
2023-03-28T11:29:17.446Z,102502.91
2023-03-28T11:31:53.166Z,102490.31
2023-03-28T11:34:25.701Z,102482.34
2023-03-28T11:36:56.440Z,102477.92
2023-03-28T11:39:51.483Z,102480.91
2023-03-28T11:42:37.589Z,102468.05
2023-03-28T11:45:09.544Z,102465.53
2023-03-28T11:47:47.924Z,102463.37
2023-03-28T11:50:27.349Z,102463.37
2023-03-28T11:53:04.713Z,102457.00
2023-03-28T11:55:47.679Z,102459.01
2023-03-28T11:58:28.129Z,102458.31
2023-03-28T12:01:07.025Z,102451.77
2023-03-28T12:03:56.487Z,102440.59
2023-03-28T12:06:29.114Z,102427.09
2023-03-28T12:09:11.301Z,102426.99
2023-03-28T12:11:48.024Z,102428.39
2023-03-28T12:14:32.529Z,102422.68
2023-03-28T12:17:06.307Z,102416.61
2023-03-28T12:19:40.581Z,102424.53
2023-03-28T12:22:19.574Z,102418.70
2023-03-28T12:25:04.422Z,102419.45
2023-03-28T12:27:56.277Z,102418.25
2023-03-28T12:30:48.978Z,102412.45
2023-03-28T12:33:23.068Z,102410.05
2023-03-28T12:36:25.968Z,102414.00
2023-03-28T12:39:19.868Z,102412.93
2023-03-28T12:41:49.311Z,102413.22
2023-03-28T12:44:23.038Z,102400.98
2023-03-28T12:47:12.085Z,102404.88
2023-03-28T12:49:45.808Z,102395.16
2023-03-28T12:52:21.507Z,102391.77
2023-03-28T12:55:02.288Z,102388.87
2023-03-28T12:57:44.047Z,102382.16
2023-03-28T13:00:45.066Z,102378.44
2023-03-28T13:03:34.984Z,102369.15
2023-03-28T13:06:13.593Z,102361.66
2023-03-28T13:09:05.165Z,102367.27
2023-03-28T13:11:58.981Z,102362.13
2023-03-28T13:14:42.674Z,102359.45
2023-03-28T13:17:21.804Z,102363.57
2023-03-28T13:19:56.064Z,102365.17
2023-03-28T13:22:56.377Z,102359.77
2023-03-28T13:25:32.401Z,102345.44
2023-03-28T13:28:22.088Z,102345.39
2023-03-28T13:31:09.222Z,102340.17
2023-03-28T13:33:44.368Z,102343.39
2023-03-28T13:36:15.977Z,102339.13
2023-03-28T13:39:09.474Z,102341.03
2023-03-28T13:41:48.759Z,102330.73
2023-03-28T13:44:29.814Z,102326.92
2023-03-28T13:46:59.412Z,102321.30
2023-03-28T13:49:36.316Z,102318.22
2023-03-28T13:52:17.581Z,102318.73
2023-03-28T13:54:48.515Z,102313.56
2023-03-28T13:57:20.820Z,102308.63
2023-03-28T14:00:01.722Z,102303.73
2023-03-28T14:02:38.312Z,102293.22
2023-03-28T14:05:22.831Z,102291.59
2023-03-28T14:07:54.263Z,102292.16
2023-03-28T14:10:28.979Z,102290.34
2023-03-28T14:13:01.584Z,102285.41
2023-03-28T14:15:31.123Z,102278.94
2023-03-28T14:18:01.428Z,102278.31
2023-03-28T14:20:31.531Z,102263.72
2023-03-28T14:23:01.807Z,102251.70
2023-03-28T14:25:32.182Z,102251.31
2023-03-28T14:28:08.433Z,102243.72
2023-03-28T14:30:42.393Z,102241.95
2023-03-28T14:33:16.850Z,102237.24
2023-03-28T14:35:47.855Z,102224.73
2023-03-28T14:38:20.654Z,102229.90
2023-03-28T14:40:50.048Z,102225.50
2023-03-28T14:43:31.213Z,102219.73
2023-03-28T14:46:03.564Z,102214.56
2023-03-28T14:48:33.410Z,102200.78
2023-03-28T14:51:04.174Z,102200.89
2023-03-28T14:53:39.127Z,102201.95
2023-03-28T14:56:12.805Z,102193.98
2023-03-28T14:58:44.505Z,102183.88
2023-03-28T15:01:18.490Z,102183.47
2023-03-28T15:03:51.645Z,102176.97
2023-03-28T15:06:23.353Z,102165.60
2023-03-28T15:08:55.067Z,102163.86
2023-03-28T15:11:29.150Z,102164.74
2023-03-28T15:14:10.281Z,102157.97
2023-03-28T15:16:45.421Z,102161.41
2023-03-28T15:19:23.567Z,102151.51
2023-03-28T15:22:06.535Z,102148.05
2023-03-28T15:24:37.756Z,102146.41
2023-03-28T15:27:09.803Z,102146.61
2023-03-28T15:29:40.472Z,102137.73
2023-03-28T15:32:15.833Z,102125.69
2023-03-28T15:34:57.685Z,102127.64
2023-03-28T15:37:27.819Z,102108.20
2023-03-28T15:40:00.379Z,102109.04
2023-03-28T15:42:31.044Z,102118.56
2023-03-28T15:45:03.942Z,102116.94
2023-03-28T15:47:35.449Z,102104.48
2023-03-28T15:50:11.562Z,102102.17
2023-03-28T15:52:43.249Z,102109.91
2023-03-28T15:55:15.892Z,102107.42
2023-03-28T15:57:45.875Z,102101.95
2023-03-28T16:00:37.796Z,102095.69
2023-03-28T16:03:22.719Z,102098.53
2023-03-28T16:06:23.044Z,102103.35
2023-03-28T16:08:47.354Z,102104.75
2023-03-28T16:11:23.091Z,102088.66
2023-03-28T16:13:57.541Z,102093.47
2023-03-28T16:16:30.654Z,102086.26
2023-03-28T16:19:07.994Z,102083.72
2023-03-28T16:21:37.786Z,102085.03
2023-03-28T16:24:08.006Z,102085.60
2023-03-28T16:26:37.332Z,102088.05
2023-03-28T16:29:06.911Z,102084.81
2023-03-28T16:31:36.354Z,102089.77
2023-03-28T16:34:09.256Z,102084.81
2023-03-28T16:36:37.056Z,102087.35
2023-03-28T16:39:08.359Z,102091.25
2023-03-28T16:41:38.082Z,102080.86
2023-03-28T16:44:07.628Z,102084.56
2023-03-28T16:46:37.213Z,102079.65
2023-03-28T16:49:07.493Z,102073.13
2023-03-28T16:51:37.374Z,102068.28
2023-03-28T16:54:06.746Z,102068.84
2023-03-28T16:56:36.544Z,102062.91
2023-03-28T16:59:08.490Z,102055.88
2023-03-28T17:01:39.202Z,102053.58
2023-03-28T17:04:08.517Z,102045.80
2023-03-28T17:06:38.201Z,102047.93
2023-03-28T17:09:07.909Z,102045.47
2023-03-28T17:11:37.528Z,102045.71
2023-03-28T17:14:07.759Z,102040.95
2023-03-28T17:16:38.874Z,102042.74
2023-03-28T17:19:08.522Z,102030.70
2023-03-28T17:21:38.434Z,102029.55
2023-03-28T17:24:09.835Z,102026.64
2023-03-28T17:26:39.274Z,102024.34
2023-03-28T17:29:09.981Z,102018.55
2023-03-28T17:31:39.835Z,102021.86
2023-03-28T17:34:09.755Z,102017.93
2023-03-28T17:36:41.142Z,102016.76
2023-03-28T17:39:11.907Z,102015.42
2023-03-28T17:41:41.896Z,102012.73
2023-03-28T17:44:11.281Z,102014.80
2023-03-28T17:46:41.421Z,102014.80
2023-03-28T17:49:10.986Z,102008.03
2023-03-28T17:51:41.112Z,102007.03
2023-03-28T17:54:12.322Z,102006.42
2023-03-28T17:56:41.901Z,102009.05
2023-03-28T17:59:12.335Z,102008.97
2023-03-28T18:01:41.774Z,102018.12
2023-03-28T18:04:11.585Z,102018.83
2023-03-28T18:06:49.114Z,102026.27
2023-03-28T18:09:18.443Z,102032.22
2023-03-28T18:11:49.239Z,102034.20
2023-03-28T18:14:18.945Z,102032.42
2023-03-28T18:16:48.948Z,102040.05
2023-03-28T18:19:20.142Z,102034.81
2023-03-28T18:21:49.885Z,102032.12
2023-03-28T18:24:20.563Z,102034.33
2023-03-28T18:26:50.298Z,102036.30
2023-03-28T18:29:20.168Z,102036.15
2023-03-28T18:31:50.195Z,102033.56
2023-03-28T18:34:20.539Z,102034.78
2023-03-28T18:36:51.410Z,102023.23
2023-03-28T18:39:23.038Z,102011.90
2023-03-28T18:41:52.381Z,102013.34
2023-03-28T18:44:21.671Z,102012.56
2023-03-28T18:46:53.203Z,102010.68
2023-03-28T18:49:23.162Z,102008.20
2023-03-28T18:51:52.774Z,101996.37
2023-03-28T18:54:22.829Z,101990.84
2023-03-28T18:56:52.843Z,101986.58
2023-03-28T18:59:23.258Z,101985.34
2023-03-28T19:01:53.917Z,101977.58
2023-03-28T19:04:26.189Z,101975.98
2023-03-28T19:06:56.617Z,101974.44
2023-03-28T19:09:26.503Z,101972.83
2023-03-28T19:11:56.267Z,101965.05
2023-03-28T19:14:25.589Z,101955.13
2023-03-28T19:16:55.236Z,101942.50
2023-03-28T19:19:25.377Z,101939.96
2023-03-28T19:21:55.793Z,101935.88
2023-03-28T19:24:25.084Z,101936.77
2023-03-28T19:26:55.078Z,101939.08
2023-03-28T19:29:25.067Z,101933.62
2023-03-28T19:31:54.847Z,101929.30
2023-03-28T19:34:24.287Z,101933.84
2023-03-28T19:36:53.814Z,101933.36
2023-03-28T19:39:23.521Z,101931.41
2023-03-28T19:41:54.225Z,101931.95
2023-03-28T19:44:23.814Z,101938.22
2023-03-28T19:46:53.445Z,101932.69
2023-03-28T19:49:22.850Z,101934.58
2023-03-28T19:51:54.651Z,101936.30
2023-03-28T19:54:25.820Z,101926.38
2023-03-28T19:56:55.563Z,101927.44
2023-03-28T19:59:25.248Z,101927.44
2023-03-28T20:01:55.035Z,101921.42
2023-03-28T20:04:24.527Z,101924.03
2023-03-28T20:06:53.988Z,101924.82
2023-03-28T20:09:24.359Z,101923.14
2023-03-28T20:11:54.163Z,101926.27
2023-03-28T20:14:23.631Z,101929.39
2023-03-28T20:16:53.351Z,101928.09
2023-03-28T20:19:25.947Z,101917.64
2023-03-28T20:21:55.614Z,101911.66
2023-03-28T20:24:25.212Z,101898.88
2023-03-28T20:26:54.546Z,101894.17
2023-03-28T20:29:24.852Z,101888.16
2023-03-28T20:31:54.740Z,101879.16
2023-03-28T20:34:24.360Z,101872.33
2023-03-28T20:36:55.427Z,101876.45
2023-03-28T20:39:26.438Z,101873.56
2023-03-28T20:41:56.221Z,101883.70
2023-03-28T20:44:27.576Z,101885.24
2023-03-28T20:46:57.557Z,101868.75
2023-03-28T20:49:27.531Z,101864.43
2023-03-28T20:51:57.520Z,101859.07
2023-03-28T20:54:27.948Z,101857.25
2023-03-28T20:56:57.498Z,101863.40
2023-03-28T20:59:28.301Z,101867.69
2023-03-28T21:01:58.034Z,101862.92
2023-03-28T21:04:28.640Z,101858.94
2023-03-28T21:06:58.236Z,101858.94
2023-03-28T21:09:27.673Z,101855.80
2023-03-28T21:11:57.129Z,101851.83
2023-03-28T21:14:26.505Z,101852.61
2023-03-28T21:16:57.528Z,101845.67
2023-03-28T21:19:27.059Z,101852.12
2023-03-28T21:21:57.084Z,101851.61
2023-03-28T21:24:38.287Z,101854.60
2023-03-28T21:27:16.624Z,101851.47
2023-03-28T21:29:48.640Z,101846.70
2023-03-28T21:32:19.514Z,101853.13
2023-03-28T21:37:34.805Z,101853.78
2023-03-28T21:40:07.939Z,101849.27
2023-03-28T21:42:54.279Z,101841.30
2023-03-28T21:45:24.114Z,101831.38
2023-03-28T21:47:54.052Z,101833.84
2023-03-28T21:50:23.553Z,101826.53
2023-03-28T21:52:53.252Z,101816.08
2023-03-28T21:55:22.626Z,101819.48
2023-03-28T21:57:52.002Z,101820.86
2023-03-28T22:00:24.285Z,101817.02
2023-03-28T22:02:54.612Z,101814.41
2023-03-28T22:05:29.839Z,101820.79
2023-03-28T22:07:55.808Z,101817.25
2023-03-28T22:10:29.436Z,101809.18
2023-03-28T22:12:59.018Z,101806.43
2023-03-28T22:15:29.007Z,101807.45
2023-03-28T22:17:59.012Z,101812.30
2023-03-28T22:20:29.664Z,101805.98
2023-03-28T22:23:00.619Z,101804.98
2023-03-28T22:25:31.733Z,101812.91
2023-03-28T22:28:01.768Z,101805.63
2023-03-28T22:30:32.113Z,101803.91
2023-03-28T22:33:02.547Z,101803.77
2023-03-28T22:35:33.685Z,101802.38
2023-03-28T22:38:04.301Z,101794.89
2023-03-28T22:40:34.026Z,101779.73
2023-03-28T22:43:03.388Z,101777.13
2023-03-28T22:45:33.177Z,101769.92
2023-03-28T22:48:03.409Z,101764.70
2023-03-28T22:50:34.022Z,101755.11
2023-03-28T22:53:04.435Z,101745.90
2023-03-28T22:55:33.894Z,101760.34
2023-03-28T22:58:03.958Z,101756.20
2023-03-28T23:00:33.521Z,101751.42
2023-03-28T23:03:03.103Z,101749.19
2023-03-28T23:05:32.864Z,101752.80
2023-03-28T23:08:02.242Z,101738.81
2023-03-28T23:10:32.268Z,101742.13
2023-03-28T23:13:01.540Z,101730.75
2023-03-28T23:15:31.076Z,101728.36
2023-03-28T23:18:00.420Z,101728.52
2023-03-28T23:20:30.014Z,101723.44
2023-03-28T23:22:59.310Z,101717.31
2023-03-28T23:25:28.831Z,101714.08
2023-03-28T23:27:58.657Z,101708.55
2023-03-28T23:30:27.937Z,101709.08
2023-03-28T23:32:57.505Z,101718.06
2023-03-28T23:35:27.004Z,101707.17
2023-03-28T23:37:56.661Z,101711.80
2023-03-28T23:40:26.253Z,101702.95
2023-03-28T23:42:55.581Z,101706.12
2023-03-28T23:45:24.881Z,101706.48
2023-03-28T23:47:54.221Z,101691.44
2023-03-28T23:50:23.503Z,101690.99
2023-03-28T23:52:53.718Z,101689.53
2023-03-28T23:55:23.350Z,101692.59
2023-03-28T23:57:54.540Z,101695.27
